createdAt,value
2018-06-11T00:00:26.509Z,18.70
2018-06-11T00:02:54.858Z,18.60
2018-06-11T00:05:23.181Z,18.60
2018-06-11T00:07:51.554Z,18.60
2018-06-11T00:10:19.873Z,18.50
2018-06-11T00:12:48.231Z,18.50
2018-06-11T00:15:16.549Z,18.40
2018-06-11T00:17:44.894Z,18.40
2018-06-11T00:20:12.447Z,18.40
2018-06-11T00:22:40.789Z,18.30
2018-06-11T00:25:09.103Z,18.30
2018-06-11T00:27:37.451Z,18.30
2018-06-11T00:30:05.766Z,18.30
2018-06-11T00:32:34.111Z,18.30
2018-06-11T00:35:02.426Z,18.20
2018-06-11T00:37:30.769Z,18.20
2018-06-11T00:39:59.098Z,18.20
2018-06-11T00:42:27.448Z,18.20
2018-06-11T00:44:55.764Z,18.10
2018-06-11T00:47:24.139Z,18.10
2018-06-11T00:49:52.462Z,18.10
2018-06-11T00:52:20.791Z,18.10
2018-06-11T00:54:49.136Z,18.00
2018-06-11T00:57:17.454Z,18.00
2018-06-11T00:59:45.801Z,18.00
2018-06-11T01:02:14.115Z,18.00
2018-06-11T01:04:42.460Z,18.00
2018-06-11T01:07:10.782Z,18.00
2018-06-11T01:09:38.367Z,18.00
2018-06-11T01:12:06.721Z,18.00
2018-06-11T01:14:35.077Z,17.90
2018-06-11T01:17:03.394Z,17.90
2018-06-11T01:19:31.732Z,17.90
2018-06-11T01:22:00.052Z,17.90
2018-06-11T01:24:28.401Z,17.90
2018-06-11T01:26:56.728Z,17.90
2018-06-11T01:29:25.073Z,18.00
2018-06-11T01:31:53.399Z,18.00
2018-06-11T01:34:21.762Z,18.10
2018-06-11T01:36:49.317Z,18.10
2018-06-11T01:39:17.637Z,18.10
2018-06-11T01:41:45.995Z,18.10
2018-06-11T01:44:14.309Z,18.10
2018-06-11T01:46:42.646Z,18.10
2018-06-11T01:49:10.962Z,18.20
2018-06-11T01:51:39.492Z,18.20
2018-06-11T01:54:07.824Z,18.20
2018-06-11T01:56:35.393Z,18.20
2018-06-11T01:59:03.707Z,18.30
2018-06-11T02:01:32.050Z,18.30
2018-06-11T02:04:00.374Z,18.30
2018-06-11T02:06:28.725Z,18.30
2018-06-11T02:08:56.281Z,18.30
2018-06-11T02:11:24.638Z,18.40
2018-06-11T02:13:52.961Z,18.40
2018-06-11T02:16:21.301Z,18.30
2018-06-11T02:18:49.620Z,18.40
2018-06-11T02:21:17.958Z,18.40
2018-06-11T02:23:46.278Z,18.40
2018-06-11T02:26:14.646Z,18.30
2018-06-11T02:28:42.985Z,18.40
2018-06-11T02:31:11.302Z,18.40
2018-06-11T02:33:39.650Z,18.40
2018-06-11T02:36:07.978Z,18.50
2018-06-11T02:38:36.341Z,18.50
2018-06-11T02:41:04.666Z,18.50
2018-06-11T02:43:33.006Z,18.50
2018-06-11T02:46:01.388Z,18.50
2018-06-11T02:48:29.745Z,18.50
2018-06-11T02:50:58.073Z,18.50
2018-06-11T02:53:26.420Z,18.50
2018-06-11T02:55:54.738Z,18.50
2018-06-11T02:58:23.089Z,18.50
2018-06-11T03:00:51.418Z,18.50
2018-06-11T03:03:19.761Z,18.50
2018-06-11T03:05:48.080Z,18.50
2018-06-11T03:08:16.494Z,18.50
2018-06-11T03:10:44.056Z,18.50
2018-06-11T03:13:12.377Z,18.60
2018-06-11T03:15:40.720Z,18.60
2018-06-11T03:18:09.043Z,18.50
2018-06-11T03:20:37.393Z,18.50
2018-06-11T03:23:05.718Z,18.50
2018-06-11T03:25:34.058Z,18.50
2018-06-11T03:28:02.382Z,18.50
2018-06-11T03:30:30.729Z,18.40
2018-06-11T03:32:59.044Z,18.40
2018-06-11T03:35:27.394Z,18.50
2018-06-11T03:37:55.714Z,18.50
2018-06-11T03:40:24.055Z,18.40
2018-06-11T03:42:52.372Z,18.40
2018-06-11T03:45:20.719Z,18.40
2018-06-11T03:47:49.040Z,18.40
2018-06-11T03:50:17.390Z,18.40
2018-06-11T03:52:45.759Z,18.40
2018-06-11T03:55:14.067Z,18.50
2018-06-11T03:57:42.385Z,18.50
2018-06-11T04:00:09.962Z,18.40
2018-06-11T04:02:38.279Z,18.40
2018-06-11T04:05:06.628Z,18.30
2018-06-11T04:07:34.955Z,18.30
2018-06-11T04:10:03.270Z,18.40
2018-06-11T04:12:32.364Z,18.30
2018-06-11T04:15:00.685Z,18.40
2018-06-11T04:17:29.036Z,18.40
2018-06-11T04:19:57.361Z,18.40
2018-06-11T04:22:25.702Z,18.40
2018-06-11T04:24:54.025Z,18.50
2018-06-11T04:27:22.366Z,18.50
2018-06-11T04:29:50.696Z,18.50
2018-06-11T04:32:19.044Z,18.50
2018-06-11T04:34:47.363Z,18.60
2018-06-11T04:37:15.705Z,18.60
2018-06-11T04:39:44.078Z,18.60
2018-06-11T04:42:12.393Z,18.60
2018-06-11T04:44:40.706Z,18.60
2018-06-11T04:47:09.044Z,18.60
2018-06-11T04:49:37.362Z,18.60
2018-06-11T04:52:05.719Z,18.70
2018-06-11T04:54:34.036Z,18.70
2018-06-11T04:57:02.384Z,18.80
2018-06-11T04:59:30.703Z,18.80
2018-06-11T05:01:59.048Z,18.80
2018-06-11T05:04:27.379Z,18.80
2018-06-11T05:06:55.694Z,18.80
2018-06-11T05:09:24.041Z,18.70
2018-06-11T05:11:52.366Z,18.60
2018-06-11T05:14:20.712Z,18.60
2018-06-11T05:16:49.029Z,18.70
2018-06-11T05:19:17.380Z,18.70
2018-06-11T05:21:45.699Z,18.70
2018-06-11T05:24:14.047Z,18.70
2018-06-11T05:26:42.368Z,18.70
2018-06-11T05:29:10.706Z,18.70
2018-06-11T05:31:39.038Z,18.60
2018-06-11T05:34:07.397Z,18.60
2018-06-11T05:36:35.734Z,18.50
2018-06-11T05:39:04.078Z,18.60
2018-06-11T05:41:32.410Z,18.60
2018-06-11T05:44:00.796Z,18.70
2018-06-11T05:46:29.121Z,18.70
2018-06-11T05:48:57.460Z,18.80
2018-06-11T05:51:25.770Z,18.80
2018-06-11T05:53:54.117Z,18.80
2018-06-11T05:56:22.437Z,18.80
2018-06-11T05:58:50.796Z,18.70
2018-06-11T06:01:19.111Z,18.80
2018-06-11T06:03:47.434Z,18.90
2018-06-11T06:06:15.782Z,18.80
2018-06-11T06:08:44.108Z,18.80
2018-06-11T06:11:11.698Z,18.80
2018-06-11T06:13:40.019Z,18.70
2018-06-11T06:16:08.370Z,18.70
2018-06-11T06:18:36.691Z,18.80
2018-06-11T06:21:05.025Z,18.90
2018-06-11T06:23:33.344Z,18.80
2018-06-11T06:26:01.697Z,18.80
2018-06-11T06:28:30.021Z,18.80
2018-06-11T06:30:58.452Z,18.70
2018-06-11T06:33:26.777Z,18.70
2018-06-11T06:35:55.126Z,18.70
2018-06-11T06:38:23.457Z,18.70
2018-06-11T06:40:51.801Z,18.70
2018-06-11T06:43:20.131Z,18.70
2018-06-11T06:45:48.485Z,18.70
2018-06-11T06:48:16.808Z,18.60
2018-06-11T06:50:45.155Z,18.50
2018-06-11T06:53:13.479Z,18.50
2018-06-11T06:55:41.829Z,18.40
2018-06-11T06:58:10.154Z,18.50
2018-06-11T07:00:38.488Z,18.50
2018-06-11T07:03:06.807Z,18.60
2018-06-11T07:05:35.141Z,18.60
2018-06-11T07:08:03.483Z,18.50
2018-06-11T07:10:31.879Z,18.50
2018-06-11T07:13:00.210Z,18.40
2018-06-11T07:15:27.762Z,18.40
2018-06-11T07:17:56.120Z,18.50
2018-06-11T07:20:23.680Z,18.40
2018-06-11T07:22:52.029Z,18.50
2018-06-11T07:25:20.360Z,18.50
2018-06-11T07:27:48.712Z,18.50
2018-06-11T07:30:17.057Z,18.60
2018-06-11T07:32:45.403Z,18.70
2018-06-11T07:35:13.731Z,18.80
2018-06-11T07:37:42.078Z,18.90
2018-06-11T07:40:10.453Z,19.00
2018-06-11T07:42:38.806Z,19.10
2018-06-11T07:45:07.132Z,19.20
2018-06-11T07:47:35.486Z,19.30
2018-06-11T07:50:03.805Z,19.30
2018-06-11T07:52:32.150Z,19.40
2018-06-11T07:55:00.501Z,19.50
2018-06-11T07:57:28.068Z,19.50
2018-06-11T07:59:56.453Z,19.70
2018-06-11T08:02:24.783Z,19.80
2018-06-11T08:04:53.134Z,19.70
2018-06-11T08:07:21.484Z,19.70
2018-06-11T08:09:49.830Z,19.70
2018-06-11T08:12:18.189Z,19.60
2018-06-11T08:14:46.538Z,19.60
2018-06-11T08:17:14.869Z,19.50
2018-06-11T08:19:43.225Z,19.60
2018-06-11T08:22:11.553Z,19.60
2018-06-11T08:24:39.893Z,19.70
2018-06-11T08:27:08.220Z,19.90
2018-06-11T08:29:36.574Z,20.00
2018-06-11T08:32:04.896Z,20.20
2018-06-11T08:34:33.258Z,20.40
2018-06-11T08:37:00.817Z,20.30
2018-06-11T08:39:29.170Z,20.70
2018-06-11T08:41:57.506Z,20.70
2018-06-11T08:44:25.858Z,20.80
2018-06-11T08:46:54.181Z,21.00
2018-06-11T08:49:22.537Z,21.10
2018-06-11T08:51:50.856Z,21.30
2018-06-11T08:54:19.201Z,21.30
2018-06-11T08:56:47.528Z,21.30
2018-06-11T08:59:15.894Z,21.30
2018-06-11T09:01:44.228Z,21.30
2018-06-11T09:04:12.553Z,21.40
2018-06-11T09:06:40.911Z,21.50
2018-06-11T09:09:09.231Z,21.60
2018-06-11T09:11:37.582Z,21.70
2018-06-11T09:14:05.911Z,21.90
2018-06-11T09:16:34.254Z,22.20
2018-06-11T09:19:02.573Z,22.50
2018-06-11T09:21:30.913Z,22.70
2018-06-11T09:23:59.237Z,22.80
2018-06-11T09:26:27.588Z,22.90
2018-06-11T09:28:55.920Z,22.90
2018-06-11T09:31:24.963Z,22.90
2018-06-11T09:33:53.303Z,23.10
2018-06-11T09:36:21.648Z,23.30
2018-06-11T09:38:49.974Z,23.50
2018-06-11T09:41:18.319Z,23.60
2018-06-11T09:43:46.679Z,23.60
2018-06-11T09:46:15.017Z,23.50
2018-06-11T09:48:43.340Z,23.50
2018-06-11T09:51:11.682Z,23.50
2018-06-11T09:53:40.001Z,23.50
2018-06-11T09:56:08.342Z,23.60
2018-06-11T09:58:36.669Z,23.70
2018-06-11T10:01:05.016Z,23.70
2018-06-11T10:03:33.350Z,23.70
2018-06-11T10:06:01.709Z,23.60
2018-06-11T10:08:30.065Z,23.60
2018-06-11T10:10:58.389Z,23.60
2018-06-11T10:13:26.737Z,23.50
2018-06-11T10:15:55.060Z,23.30
2018-06-11T10:18:23.404Z,23.30
2018-06-11T10:20:50.978Z,23.30
2018-06-11T10:23:19.329Z,22.80
2018-06-11T10:25:47.654Z,22.70
2018-06-11T10:28:16.006Z,22.50
2018-06-11T10:30:44.502Z,22.40
2018-06-11T10:33:12.853Z,22.30
2018-06-11T10:35:41.174Z,22.30
2018-06-11T10:38:09.521Z,22.20
2018-06-11T10:40:37.846Z,22.30
2018-06-11T10:43:06.196Z,22.40
2018-06-11T10:45:34.535Z,22.40
2018-06-11T10:48:02.898Z,22.30
2018-06-11T10:50:31.225Z,22.20
2018-06-11T10:52:59.583Z,22.10
2018-06-11T10:55:27.945Z,22.20
2018-06-11T10:57:56.321Z,22.10
2018-06-11T11:00:24.742Z,22.00
2018-06-11T11:02:53.084Z,21.90
2018-06-11T11:05:21.413Z,21.80
2018-06-11T11:07:49.763Z,21.70
2018-06-11T11:10:18.098Z,21.60
2018-06-11T11:12:46.455Z,21.70
2018-06-11T11:15:14.785Z,21.60
2018-06-11T11:17:42.341Z,21.60
2018-06-11T11:20:09.912Z,21.70
2018-06-11T11:22:38.237Z,21.80
2018-06-11T11:25:06.587Z,21.90
2018-06-11T11:27:34.901Z,21.90
2018-06-11T11:30:03.261Z,21.90
2018-06-11T11:32:31.596Z,22.00
2018-06-11T11:34:59.941Z,22.10
2018-06-11T11:37:28.280Z,22.40
2018-06-11T11:39:56.621Z,22.60
2018-06-11T11:42:24.945Z,22.80
2018-06-11T11:44:53.293Z,23.00
2018-06-11T11:47:21.664Z,23.10
2018-06-11T11:49:50.019Z,23.10
2018-06-11T11:52:18.444Z,23.10
2018-06-11T11:54:46.796Z,22.90
2018-06-11T11:57:15.119Z,22.70
2018-06-11T11:59:42.704Z,22.70
2018-06-11T12:02:11.071Z,22.50
2018-06-11T12:04:39.543Z,22.40
2018-06-11T12:07:07.957Z,22.20
2018-06-11T12:09:36.374Z,22.10
2018-06-11T12:12:04.740Z,22.20
2018-06-11T12:14:33.089Z,22.40
2018-06-11T12:17:00.645Z,22.40
2018-06-11T12:19:29.004Z,22.60
2018-06-11T12:21:57.331Z,22.80
2018-06-11T12:24:25.660Z,22.80
2018-06-11T12:26:54.026Z,22.80
2018-06-11T12:29:22.342Z,23.00
2018-06-11T12:31:50.686Z,23.20
2018-06-11T12:34:18.996Z,23.40
2018-06-11T12:36:47.337Z,23.50
2018-06-11T12:39:15.664Z,23.40
2018-06-11T12:41:44.004Z,23.30
2018-06-11T12:44:12.333Z,23.30
2018-06-11T12:46:40.685Z,23.20
2018-06-11T12:49:09.024Z,23.00
2018-06-11T12:51:37.374Z,22.80
2018-06-11T12:54:05.700Z,22.60
2018-06-11T12:56:34.060Z,22.50
2018-06-11T12:59:01.617Z,22.50
2018-06-11T13:01:30.039Z,22.30
2018-06-11T13:03:58.323Z,22.20
2018-06-11T13:06:26.659Z,22.10
2018-06-11T13:08:55.006Z,22.00
2018-06-11T13:11:23.329Z,22.00
2018-06-11T13:13:51.684Z,21.90
2018-06-11T13:16:20.017Z,21.70
2018-06-11T13:18:48.356Z,21.70
2018-06-11T13:21:16.741Z,21.60
2018-06-11T13:23:45.143Z,21.50
2018-06-11T13:26:13.562Z,21.50
2018-06-11T13:28:42.068Z,21.50
2018-06-11T13:31:10.473Z,21.50
2018-06-11T13:33:38.881Z,21.40
2018-06-11T13:36:07.204Z,21.30
2018-06-11T13:38:35.546Z,21.30
2018-06-11T13:41:03.884Z,21.20
2018-06-11T13:43:32.238Z,21.00
2018-06-11T13:46:00.571Z,21.00
2018-06-11T13:48:28.917Z,21.00
2018-06-11T13:50:57.237Z,21.00
2018-06-11T13:53:25.582Z,20.90
2018-06-11T13:55:53.940Z,21.00
2018-06-11T13:58:22.277Z,21.00
2018-06-11T14:00:49.836Z,20.90
2018-06-11T14:03:18.207Z,21.00
2018-06-11T14:05:46.584Z,21.00
2018-06-11T14:08:14.889Z,20.90
2018-06-11T14:10:43.234Z,20.90
2018-06-11T14:13:11.568Z,20.90
2018-06-11T14:15:39.914Z,20.90
2018-06-11T14:18:08.246Z,20.90
2018-06-11T14:20:35.817Z,20.90
2018-06-11T14:23:04.137Z,20.90
2018-06-11T14:25:32.485Z,20.90
2018-06-11T14:28:00.809Z,20.90
2018-06-11T14:30:29.164Z,20.90
2018-06-11T14:32:57.492Z,20.90
2018-06-11T14:35:25.840Z,20.90
2018-06-11T14:37:54.170Z,21.00
2018-06-11T14:40:22.518Z,21.00
2018-06-11T14:42:50.836Z,21.00
2018-06-11T14:45:19.183Z,21.00
2018-06-11T14:47:47.515Z,21.00
2018-06-11T14:50:15.870Z,21.00
2018-06-11T14:52:44.186Z,21.10
2018-06-11T14:55:12.535Z,21.10
2018-06-11T14:57:41.183Z,21.10
2018-06-11T15:00:09.526Z,21.20
2018-06-11T15:02:37.849Z,21.20
2018-06-11T15:05:06.193Z,21.20
2018-06-11T15:07:34.522Z,21.20
2018-06-11T15:10:02.879Z,21.30
2018-06-11T15:12:31.201Z,21.30
2018-06-11T15:14:59.556Z,21.40
2018-06-11T15:17:27.884Z,21.40
2018-06-11T15:19:56.222Z,21.50
2018-06-11T15:22:24.578Z,21.50
2018-06-11T15:24:52.904Z,21.60
2018-06-11T15:27:21.276Z,21.60
2018-06-11T15:29:49.601Z,21.60
2018-06-11T15:32:17.966Z,21.50
2018-06-11T15:34:46.347Z,21.50
2018-06-11T15:37:14.718Z,21.50
2018-06-11T15:39:43.055Z,21.50
2018-06-11T15:42:11.411Z,21.60
2018-06-11T15:44:39.734Z,21.60
2018-06-11T15:47:08.079Z,21.70
2018-06-11T15:49:36.404Z,21.70
2018-06-11T15:52:04.774Z,21.70
2018-06-11T15:54:33.113Z,21.70
2018-06-11T15:57:01.474Z,21.60
2018-06-11T15:59:29.799Z,21.50
2018-06-11T16:01:58.153Z,21.50
2018-06-11T16:04:26.484Z,21.40
2018-06-11T16:06:54.833Z,21.30
2018-06-11T16:09:23.168Z,21.20
2018-06-11T16:11:51.535Z,21.10
2018-06-11T16:14:19.861Z,21.00
2018-06-11T16:16:48.205Z,21.00
2018-06-11T16:19:16.533Z,20.90
2018-06-11T16:21:44.894Z,20.90
2018-06-11T16:24:13.220Z,20.90
2018-06-11T16:26:41.544Z,20.80
2018-06-11T16:29:09.884Z,20.80
2018-06-11T16:31:38.214Z,20.80
2018-06-11T16:34:06.565Z,20.80
2018-06-11T16:36:34.884Z,20.80
2018-06-11T16:39:03.231Z,20.80
2018-06-11T16:41:31.582Z,20.70
2018-06-11T16:43:59.942Z,20.70
2018-06-11T16:46:28.265Z,20.70
2018-06-11T16:48:56.616Z,20.70
2018-06-11T16:51:24.958Z,20.70
2018-06-11T16:53:53.335Z,20.70
2018-06-11T16:56:21.654Z,20.60
2018-06-11T16:58:50.000Z,20.50
2018-06-11T17:01:18.327Z,20.40
2018-06-11T17:03:46.659Z,20.40
2018-06-11T17:06:15.003Z,20.30
2018-06-11T17:08:43.290Z,20.30
2018-06-11T17:11:11.613Z,20.20
2018-06-11T17:13:39.951Z,20.10
2018-06-11T17:16:08.250Z,20.10
2018-06-11T17:18:36.562Z,20.00
2018-06-11T17:21:04.878Z,20.00
2018-06-11T17:23:33.186Z,19.90
2018-06-11T17:26:01.512Z,19.90
2018-06-11T17:28:29.816Z,19.80
2018-06-11T17:30:58.154Z,19.80
2018-06-11T17:33:26.447Z,19.70
2018-06-11T17:35:54.775Z,19.70
2018-06-11T17:38:23.083Z,19.70
2018-06-11T17:40:51.406Z,19.60
2018-06-11T17:43:19.711Z,19.60
2018-06-11T17:45:48.039Z,19.50
2018-06-11T17:48:16.338Z,19.50
2018-06-11T17:50:44.656Z,19.40
2018-06-11T17:53:12.961Z,19.30
2018-06-11T17:55:41.284Z,19.20
2018-06-11T17:58:09.587Z,19.20
2018-06-11T18:00:37.936Z,19.10
2018-06-11T18:03:06.230Z,19.00
2018-06-11T18:05:34.601Z,19.00
2018-06-11T18:08:02.882Z,18.90
2018-06-11T18:10:31.201Z,18.90
2018-06-11T18:12:59.506Z,18.90
2018-06-11T18:15:27.826Z,18.90
2018-06-11T18:17:56.158Z,18.80
2018-06-11T18:20:24.454Z,18.70
2018-06-11T18:22:52.783Z,18.70
2018-06-11T18:25:21.086Z,18.70
2018-06-11T18:27:49.410Z,18.60
2018-06-11T18:30:17.708Z,18.50
2018-06-11T18:32:46.026Z,18.40
2018-06-11T18:35:14.326Z,18.40
2018-06-11T18:37:42.646Z,18.30
2018-06-11T18:40:10.942Z,18.30
2018-06-11T18:42:39.273Z,18.20
2018-06-11T18:45:07.571Z,18.20
2018-06-11T18:47:35.890Z,18.20
2018-06-11T18:50:04.186Z,18.10
2018-06-11T18:52:32.514Z,18.10
2018-06-11T18:55:00.810Z,18.00
2018-06-11T18:57:29.128Z,18.00
2018-06-11T18:59:57.430Z,18.00
2018-06-11T19:02:25.746Z,17.90
2018-06-11T19:04:54.048Z,17.90
2018-06-11T19:07:22.376Z,17.80
2018-06-11T19:09:50.669Z,17.80
2018-06-11T19:12:19.046Z,17.70
2018-06-11T19:14:47.318Z,17.70
2018-06-11T19:17:15.662Z,17.70
2018-06-11T19:19:44.217Z,17.60
2018-06-11T19:22:12.644Z,17.60
2018-06-11T19:24:40.969Z,17.60
2018-06-11T19:27:09.282Z,17.60
2018-06-11T19:29:37.679Z,17.50
2018-06-11T19:32:05.964Z,17.50
2018-06-11T19:34:34.411Z,17.50
2018-06-11T19:37:02.748Z,17.40
2018-06-11T19:39:30.391Z,17.40
2018-06-11T19:41:58.686Z,17.40
2018-06-11T19:44:27.002Z,17.40
2018-06-11T19:46:55.310Z,17.40
2018-06-11T19:49:23.630Z,17.40
2018-06-11T19:51:51.932Z,17.40
2018-06-11T19:54:20.354Z,17.40
2018-06-11T19:56:48.627Z,17.40
2018-06-11T19:59:16.958Z,17.40
2018-06-11T20:01:45.259Z,17.30
2018-06-11T20:04:13.592Z,17.30
2018-06-11T20:06:41.890Z,17.20
2018-06-11T20:09:10.195Z,17.20
2018-06-11T20:11:38.575Z,17.20
2018-06-11T20:14:06.102Z,17.20
2018-06-11T20:16:34.436Z,17.20
2018-06-11T20:19:01.977Z,17.20
2018-06-11T20:21:30.307Z,17.10
2018-06-11T20:23:58.608Z,17.00
2018-06-11T20:26:26.939Z,17.00
2018-06-11T20:28:55.239Z,17.00
2018-06-11T20:31:23.559Z,16.90
2018-06-11T20:33:51.904Z,16.80
2018-06-11T20:36:20.219Z,16.80
2018-06-11T20:38:48.514Z,16.70
2018-06-11T20:41:16.837Z,16.70
2018-06-11T20:43:45.130Z,16.70
2018-06-11T20:46:13.450Z,16.70
2018-06-11T20:48:41.746Z,16.70
2018-06-11T20:51:10.070Z,16.60
2018-06-11T20:53:38.370Z,16.60
2018-06-11T20:56:06.694Z,16.60
2018-06-11T20:58:34.990Z,16.60
2018-06-11T21:01:03.311Z,16.60
2018-06-11T21:03:31.748Z,16.60
2018-06-11T21:05:59.954Z,16.50
2018-06-11T21:08:28.278Z,16.50
2018-06-11T21:10:56.588Z,16.50
2018-06-11T21:13:24.902Z,16.50
2018-06-11T21:15:53.221Z,16.50
2018-06-11T21:18:20.780Z,16.40
2018-06-11T21:20:49.074Z,16.40
2018-06-11T21:23:16.631Z,16.40
2018-06-11T21:25:44.930Z,16.30
2018-06-11T21:28:13.269Z,16.20
2018-06-11T21:30:41.573Z,16.20
2018-06-11T21:33:09.903Z,16.20
2018-06-11T21:35:38.205Z,16.20
2018-06-11T21:38:05.757Z,16.20
2018-06-11T21:40:34.063Z,16.20
2018-06-11T21:43:02.389Z,16.20
2018-06-11T21:45:29.926Z,16.20
2018-06-11T21:47:58.253Z,16.10
2018-06-11T21:50:26.556Z,16.10
2018-06-11T21:52:54.887Z,16.10
2018-06-11T21:55:23.194Z,16.20
2018-06-11T21:57:50.751Z,16.20
2018-06-11T22:00:19.047Z,16.20
2018-06-11T22:02:47.389Z,16.10
2018-06-11T22:05:15.686Z,16.10
2018-06-11T22:07:43.993Z,16.10
2018-06-11T22:10:12.310Z,16.10
2018-06-11T22:12:39.843Z,16.10
2018-06-11T22:15:08.170Z,16.10
2018-06-11T22:17:35.708Z,16.10
2018-06-11T22:20:04.027Z,16.20
2018-06-11T22:22:32.322Z,16.20
2018-06-11T22:25:00.644Z,16.20
2018-06-11T22:27:28.947Z,16.20
2018-06-11T22:29:57.279Z,16.20
2018-06-11T22:32:25.613Z,16.20
2018-06-11T22:34:53.926Z,16.20
2018-06-11T22:37:22.234Z,16.20
2018-06-11T22:39:50.570Z,16.20
2018-06-11T22:42:18.870Z,16.20
2018-06-11T22:44:47.205Z,16.20
2018-06-11T22:47:14.735Z,16.20
2018-06-11T22:49:42.301Z,16.20
2018-06-11T22:52:10.598Z,16.20
2018-06-11T22:54:38.934Z,16.20
2018-06-11T22:57:06.466Z,16.20
2018-06-11T22:59:34.796Z,16.20
2018-06-11T23:02:03.099Z,16.20
2018-06-11T23:04:31.424Z,16.20
2018-06-11T23:06:59.726Z,16.20
2018-06-11T23:09:28.059Z,16.20
2018-06-11T23:11:56.366Z,16.10
2018-06-11T23:14:24.694Z,16.00
2018-06-11T23:16:53.003Z,16.00
2018-06-11T23:19:21.339Z,15.90
2018-06-11T23:21:49.634Z,15.90
2018-06-11T23:24:17.938Z,16.00
2018-06-11T23:26:46.254Z,16.00
2018-06-11T23:29:13.811Z,16.00
2018-06-11T23:31:42.130Z,16.00
2018-06-11T23:34:10.433Z,16.00
2018-06-11T23:36:38.753Z,16.00
2018-06-11T23:39:07.062Z,16.00
2018-06-11T23:41:35.384Z,16.10
2018-06-11T23:44:03.689Z,16.10
2018-06-11T23:46:32.016Z,16.10
2018-06-11T23:49:00.323Z,16.10
2018-06-11T23:51:28.647Z,16.10
2018-06-11T23:53:56.942Z,16.10
2018-06-11T23:56:25.264Z,16.10
2018-06-11T23:58:53.568Z,16.10
